createdAt,value
2023-02-11T00:01:57.877Z,56.20
2023-02-11T00:04:30.240Z,56.20
2023-02-11T00:06:59.812Z,56.30
2023-02-11T00:09:33.999Z,56.20
2023-02-11T00:12:03.265Z,56.30
2023-02-11T00:14:32.417Z,56.20
2023-02-11T00:17:01.660Z,56.30
2023-02-11T00:19:31.038Z,56.40
2023-02-11T00:22:00.352Z,56.40
2023-02-11T00:24:30.065Z,56.40
2023-02-11T00:26:57.219Z,56.20
2023-02-11T00:29:26.360Z,56.30
2023-02-11T00:31:55.554Z,56.30
2023-02-11T00:34:24.687Z,56.30
2023-02-11T00:36:51.883Z,56.30
2023-02-11T00:39:21.265Z,56.20
2023-02-11T00:41:52.781Z,57.00
2023-02-11T00:44:22.118Z,56.40
2023-02-11T00:46:51.273Z,56.30
2023-02-11T00:49:18.354Z,56.30
2023-02-11T00:51:47.414Z,56.40
2023-02-11T00:54:19.465Z,56.50
2023-02-11T00:56:48.741Z,56.60
2023-02-11T00:59:17.798Z,56.40
2023-02-11T01:01:46.999Z,56.50
2023-02-11T01:04:13.858Z,56.50
2023-02-11T01:06:43.215Z,56.60
2023-02-11T01:09:15.697Z,56.70
2023-02-11T01:11:47.642Z,56.60
2023-02-11T01:14:17.317Z,56.70
2023-02-11T01:16:44.455Z,56.70
2023-02-11T01:19:16.031Z,56.50
2023-02-11T01:21:46.376Z,56.60
2023-02-11T01:24:18.001Z,56.70
2023-02-11T01:26:49.591Z,56.60
2023-02-11T01:29:16.557Z,56.70
2023-02-11T01:31:43.342Z,56.70
2023-02-11T01:34:10.230Z,56.60
2023-02-11T01:36:37.710Z,56.60
2023-02-11T01:39:08.470Z,56.70
2023-02-11T01:41:37.992Z,56.60
2023-02-11T01:44:34.259Z,56.70
2023-02-11T01:47:07.138Z,56.90
2023-02-11T01:49:41.332Z,56.70
2023-02-11T01:52:23.533Z,56.90
2023-02-11T01:55:20.580Z,57.00
2023-02-11T01:57:59.130Z,56.90
2023-02-11T02:00:38.112Z,57.00
2023-02-11T02:03:19.975Z,57.20
2023-02-11T02:06:10.869Z,56.90
2023-02-11T02:08:58.023Z,57.20
2023-02-11T02:11:26.246Z,57.50
2023-02-11T02:13:53.172Z,56.80
2023-02-11T02:16:26.366Z,56.80
2023-02-11T02:19:23.082Z,57.00
2023-02-11T02:22:22.503Z,57.10
2023-02-11T02:25:03.622Z,57.00
2023-02-11T02:27:52.003Z,57.30
2023-02-11T02:31:04.838Z,57.50
2023-02-11T02:34:00.159Z,57.50
2023-02-11T02:36:48.262Z,57.10
2023-02-11T02:39:25.196Z,57.20
2023-02-11T02:41:54.848Z,57.40
2023-02-11T02:44:29.197Z,58.00
2023-02-11T02:46:58.792Z,57.30
2023-02-11T02:49:32.868Z,57.30
2023-02-11T02:52:17.001Z,57.30
2023-02-11T02:55:17.635Z,57.80
2023-02-11T02:57:59.317Z,58.00
2023-02-11T03:01:07.626Z,57.60
2023-02-11T03:03:52.834Z,57.70
2023-02-11T03:06:27.830Z,57.30
2023-02-11T03:09:11.876Z,57.40
2023-02-11T03:11:41.540Z,57.70
2023-02-11T03:14:17.005Z,57.30
2023-02-11T03:16:47.914Z,57.50
2023-02-11T03:19:29.760Z,57.50
2023-02-11T03:22:00.286Z,57.70
2023-02-11T03:24:38.268Z,57.60
2023-02-11T03:27:32.337Z,58.00
2023-02-11T03:30:22.001Z,58.20
2023-02-11T03:33:00.437Z,57.70
2023-02-11T03:35:54.037Z,57.80
2023-02-11T03:38:33.615Z,58.00
2023-02-11T03:41:05.978Z,57.90
2023-02-11T03:43:46.319Z,57.80
2023-02-11T03:46:18.207Z,57.80
2023-02-11T03:48:54.591Z,57.80
2023-02-11T03:51:30.444Z,58.10
2023-02-11T03:54:04.099Z,58.00
2023-02-11T03:56:41.559Z,58.00
2023-02-11T03:59:08.743Z,58.00
2023-02-11T04:01:38.165Z,57.90
2023-02-11T04:04:05.777Z,58.00
2023-02-11T04:06:40.065Z,58.00
2023-02-11T04:09:07.142Z,58.20
2023-02-11T04:11:36.268Z,58.10
2023-02-11T04:14:05.306Z,58.20
2023-02-11T04:16:32.124Z,58.20
2023-02-11T04:19:01.606Z,58.10
2023-02-11T04:21:28.481Z,58.20
2023-02-11T04:23:57.430Z,58.20
2023-02-11T04:26:28.840Z,58.40
2023-02-11T04:29:00.736Z,58.30
2023-02-11T04:31:27.784Z,58.30
2023-02-11T04:33:54.824Z,58.30
2023-02-11T04:36:21.635Z,58.20
2023-02-11T04:38:50.647Z,58.30
2023-02-11T04:41:17.562Z,58.40
2023-02-11T04:43:44.343Z,58.40
2023-02-11T04:46:13.300Z,58.30
2023-02-11T04:48:40.331Z,58.30
2023-02-11T04:51:07.373Z,58.40
2023-02-11T04:53:36.223Z,58.50
2023-02-11T04:56:03.229Z,59.00
2023-02-11T04:58:30.371Z,58.40
2023-02-11T05:01:14.398Z,59.00
2023-02-11T05:03:44.260Z,58.40
2023-02-11T05:06:15.902Z,58.40
2023-02-11T05:08:42.732Z,58.40
2023-02-11T05:11:22.361Z,58.40
2023-02-11T05:13:49.426Z,58.70
2023-02-11T05:16:17.490Z,58.40
2023-02-11T05:18:47.039Z,58.40
2023-02-11T05:21:19.591Z,58.60
2023-02-11T05:23:51.022Z,58.50
2023-02-11T05:26:21.304Z,58.60
2023-02-11T05:28:50.318Z,58.60
2023-02-11T05:31:21.802Z,58.70
2023-02-11T05:33:53.398Z,58.70
2023-02-11T05:36:23.006Z,58.70
2023-02-11T05:38:50.880Z,58.70
2023-02-11T05:41:20.541Z,58.80
2023-02-11T05:43:53.113Z,58.80
2023-02-11T05:46:23.165Z,58.90
2023-02-11T05:48:50.039Z,58.80
2023-02-11T05:51:16.864Z,58.80
2023-02-11T05:53:43.663Z,58.90
2023-02-11T05:56:14.470Z,59.00
2023-02-11T05:58:43.715Z,59.00
2023-02-11T06:01:15.352Z,59.00
2023-02-11T06:03:42.347Z,59.00
2023-02-11T06:06:13.204Z,58.90
2023-02-11T06:08:42.940Z,59.70
2023-02-11T06:11:17.990Z,58.90
2023-02-11T06:13:49.409Z,59.00
2023-02-11T06:16:21.147Z,59.00
2023-02-11T06:18:50.294Z,59.00
2023-02-11T06:21:19.457Z,59.00
2023-02-11T06:23:52.612Z,59.00
2023-02-11T06:26:23.049Z,59.10
2023-02-11T06:28:54.610Z,59.00
2023-02-11T06:31:26.544Z,59.00
2023-02-11T06:33:59.155Z,58.90
2023-02-11T06:36:26.088Z,59.00
2023-02-11T06:38:53.071Z,58.80
2023-02-11T06:41:27.322Z,58.70
2023-02-11T06:43:54.294Z,58.70
2023-02-11T06:46:21.387Z,58.70
2023-02-11T06:48:54.377Z,58.60
2023-02-11T06:51:23.676Z,58.60
2023-02-11T06:53:50.686Z,58.60
2023-02-11T06:56:22.982Z,58.70
2023-02-11T06:59:00.662Z,58.80
2023-02-11T07:01:28.191Z,58.90
2023-02-11T07:03:56.234Z,58.90
2023-02-11T07:06:31.243Z,58.90
2023-02-11T07:09:00.225Z,59.00
2023-02-11T07:11:30.014Z,58.90
2023-02-11T07:14:04.259Z,59.20
2023-02-11T07:16:36.773Z,59.40
2023-02-11T07:19:06.035Z,59.30
2023-02-11T07:21:32.940Z,59.30
2023-02-11T07:24:02.133Z,60.00
2023-02-11T07:26:33.796Z,59.30
2023-02-11T07:29:00.957Z,59.60
2023-02-11T07:31:29.881Z,59.30
2023-02-11T07:34:01.958Z,59.40
2023-02-11T07:36:33.202Z,59.40
2023-02-11T07:39:07.625Z,59.40
2023-02-11T07:41:40.171Z,59.40
2023-02-11T07:44:09.907Z,59.30
2023-02-11T07:46:43.062Z,59.40
2023-02-11T07:49:10.115Z,59.50
2023-02-11T07:51:39.874Z,60.00
2023-02-11T07:54:13.204Z,59.40
2023-02-11T07:56:40.199Z,59.40
2023-02-11T07:59:15.576Z,59.50
2023-02-11T08:01:45.562Z,59.60
2023-02-11T08:04:14.613Z,59.60
2023-02-11T08:06:46.009Z,59.60
2023-02-11T08:09:19.143Z,59.60
2023-02-11T08:11:46.059Z,59.70
2023-02-11T08:14:15.438Z,59.50
2023-02-11T08:16:44.685Z,59.50
2023-02-11T08:19:16.822Z,59.50
2023-02-11T08:21:46.006Z,59.50
2023-02-11T08:24:14.748Z,59.50
2023-02-11T08:26:44.294Z,59.50
2023-02-11T08:29:17.132Z,59.50
2023-02-11T08:31:50.477Z,59.60
2023-02-11T08:34:19.798Z,59.50
2023-02-11T08:36:50.515Z,59.50
2023-02-11T08:39:22.727Z,59.50
2023-02-11T08:41:53.312Z,59.60
2023-02-11T08:44:21.692Z,59.50
2023-02-11T08:46:53.905Z,59.70
2023-02-11T08:49:22.034Z,59.60
2023-02-11T08:51:50.300Z,59.60
2023-02-11T08:54:20.045Z,59.60
2023-02-11T08:56:51.817Z,59.60
2023-02-11T08:59:18.669Z,59.60
2023-02-11T09:01:47.346Z,59.70
2023-02-11T09:04:19.581Z,59.70
2023-02-11T09:06:49.079Z,59.60
2023-02-11T09:09:20.932Z,59.60
2023-02-11T09:11:57.102Z,59.70
2023-02-11T09:14:24.824Z,59.70
2023-02-11T09:16:53.129Z,59.60
2023-02-11T09:19:20.635Z,59.50
2023-02-11T09:21:47.620Z,59.50
2023-02-11T09:24:17.098Z,59.50
2023-02-11T09:26:46.493Z,59.60
2023-02-11T09:29:15.564Z,59.60
2023-02-11T09:31:47.586Z,59.60
2023-02-11T09:34:19.295Z,59.70
2023-02-11T09:36:48.550Z,59.60
2023-02-11T09:39:20.448Z,59.40
2023-02-11T09:42:09.155Z,59.40
2023-02-11T09:44:42.785Z,59.30
2023-02-11T09:47:58.756Z,59.10
2023-02-11T09:50:30.751Z,59.20
2023-02-11T09:53:15.247Z,59.10
2023-02-11T09:55:47.924Z,59.10
2023-02-11T09:58:28.629Z,59.20
2023-02-11T10:01:12.730Z,59.20
2023-02-11T10:04:08.819Z,59.10
2023-02-11T10:06:54.166Z,59.30
2023-02-11T10:10:07.422Z,59.20
2023-02-11T10:13:02.907Z,59.20
2023-02-11T10:15:51.989Z,59.30
2023-02-11T10:18:49.205Z,59.20
2023-02-11T10:22:12.171Z,59.20
2023-02-11T10:24:51.697Z,59.30
2023-02-11T10:27:33.884Z,59.10
2023-02-11T10:30:10.364Z,59.10
2023-02-11T10:33:16.620Z,59.10
2023-02-11T10:35:45.664Z,59.30
2023-02-11T10:38:19.330Z,59.10
2023-02-11T10:40:51.604Z,59.10
2023-02-11T10:43:28.521Z,59.00
2023-02-11T10:46:02.643Z,59.00
2023-02-11T10:48:44.469Z,59.00
2023-02-11T10:51:21.475Z,59.10
2023-02-11T10:54:19.378Z,58.80
2023-02-11T10:56:52.008Z,58.80
2023-02-11T10:59:40.143Z,59.00
2023-02-11T11:02:31.977Z,59.40
2023-02-11T11:05:16.448Z,59.20
2023-02-11T11:08:00.218Z,59.00
2023-02-11T11:10:44.210Z,59.10
2023-02-11T11:13:26.092Z,59.00
2023-02-11T11:16:23.252Z,59.20
2023-02-11T11:19:08.812Z,59.20
2023-02-11T11:21:48.009Z,59.10
2023-02-11T11:24:54.075Z,59.20
2023-02-11T11:27:26.204Z,59.10
2023-02-11T11:29:57.993Z,59.00
2023-02-11T11:32:37.137Z,59.00
2023-02-11T11:35:30.221Z,59.10
2023-02-11T11:38:06.646Z,59.00
2023-02-11T11:40:35.764Z,59.00
2023-02-11T11:43:14.437Z,58.90
2023-02-11T11:46:06.150Z,59.00
2023-02-11T11:48:42.694Z,59.20
2023-02-11T11:51:16.356Z,59.00
2023-02-11T11:54:08.567Z,59.00
2023-02-11T11:56:51.058Z,59.00
2023-02-11T11:59:21.635Z,58.90
2023-02-11T12:02:06.857Z,59.00
2023-02-11T12:05:21.939Z,59.00
2023-02-11T12:08:24.583Z,59.20
2023-02-11T12:11:34.790Z,59.20
2023-02-11T12:14:19.507Z,59.10
2023-02-11T12:17:20.648Z,59.30
2023-02-11T12:20:28.314Z,59.30
2023-02-11T12:23:24.134Z,59.40
2023-02-11T12:25:58.320Z,59.30
2023-02-11T12:29:06.072Z,59.20
2023-02-11T12:32:03.410Z,59.20
2023-02-11T12:35:02.530Z,58.90
2023-02-11T12:37:42.147Z,59.20
2023-02-11T12:40:42.087Z,59.00
2023-02-11T12:43:20.170Z,59.20
2023-02-11T12:46:08.261Z,59.10
2023-02-11T12:49:11.817Z,59.20
2023-02-11T12:52:30.112Z,59.30
2023-02-11T12:55:16.968Z,59.10
2023-02-11T12:57:51.340Z,59.20
2023-02-11T13:00:28.107Z,59.10
2023-02-11T13:03:21.226Z,59.10
2023-02-11T13:05:50.857Z,59.30
2023-02-11T13:08:31.187Z,59.20
2023-02-11T13:11:25.314Z,59.20
2023-02-11T13:14:16.231Z,59.40
2023-02-11T13:16:52.555Z,59.30
2023-02-11T13:19:37.001Z,59.20
2023-02-11T13:22:36.985Z,59.20
2023-02-11T13:25:57.061Z,59.50
2023-02-11T13:28:50.644Z,59.40
2023-02-11T13:31:26.803Z,59.10
2023-02-11T13:33:54.059Z,59.20
2023-02-11T13:36:35.958Z,59.20
2023-02-11T13:39:22.549Z,59.40
2023-02-11T13:41:52.916Z,59.40
2023-02-11T13:44:28.706Z,59.30
2023-02-11T13:47:05.542Z,59.50
2023-02-11T13:49:40.588Z,59.70
2023-02-11T13:52:44.815Z,59.60
2023-02-11T13:55:20.196Z,59.80
2023-02-11T13:58:09.048Z,59.60
2023-02-11T14:00:38.799Z,59.80
2023-02-11T14:03:30.412Z,59.50
2023-02-11T14:06:33.617Z,59.60
2023-02-11T14:09:09.970Z,59.80
2023-02-11T14:12:16.857Z,59.80
2023-02-11T14:15:13.179Z,59.80
2023-02-11T14:17:42.093Z,59.90
2023-02-11T14:20:45.263Z,59.70
2023-02-11T14:23:27.203Z,60.00
2023-02-11T14:26:11.468Z,60.00
2023-02-11T14:28:44.740Z,59.90
2023-02-11T14:31:28.145Z,59.80
2023-02-11T14:34:42.642Z,59.90
2023-02-11T14:37:27.355Z,60.20
2023-02-11T14:40:24.448Z,59.90
2023-02-11T14:42:54.343Z,59.80
2023-02-11T14:45:31.007Z,59.70
2023-02-11T14:48:08.338Z,59.80
2023-02-11T14:50:49.418Z,59.90
2023-02-11T14:53:22.500Z,59.70
2023-02-11T14:55:55.077Z,59.90
2023-02-11T14:58:31.364Z,59.80
2023-02-11T15:01:08.863Z,59.80
2023-02-11T15:03:44.602Z,59.70
2023-02-11T15:06:46.999Z,59.90
2023-02-11T15:09:24.019Z,60.10
2023-02-11T15:11:54.940Z,59.80
2023-02-11T15:14:35.006Z,60.00
2023-02-11T15:17:09.300Z,60.00
2023-02-11T15:19:44.190Z,59.90
2023-02-11T15:22:29.173Z,60.00
2023-02-11T15:25:19.866Z,60.20
2023-02-11T15:27:52.809Z,60.20
2023-02-11T15:30:21.630Z,59.90
2023-02-11T15:33:06.818Z,59.90
2023-02-11T15:35:39.732Z,60.10
2023-02-11T15:38:15.513Z,60.00
2023-02-11T15:41:02.128Z,60.00
2023-02-11T15:43:42.513Z,60.20
2023-02-11T15:46:14.841Z,60.30
2023-02-11T15:48:53.810Z,60.10
2023-02-11T15:51:32.855Z,60.20
2023-02-11T15:54:07.844Z,60.10
2023-02-11T15:56:45.357Z,60.10
2023-02-11T15:59:47.358Z,60.20
2023-02-11T16:02:30.366Z,60.40
2023-02-11T16:05:12.036Z,60.20
2023-02-11T16:07:51.001Z,60.10
2023-02-11T16:10:30.308Z,60.10
2023-02-11T16:13:08.421Z,60.10
2023-02-11T16:15:38.085Z,60.30
2023-02-11T16:18:38.591Z,60.10
2023-02-11T16:21:18.367Z,60.50
2023-02-11T16:23:58.232Z,60.40
2023-02-11T16:26:43.258Z,60.30
2023-02-11T16:29:23.546Z,60.30
2023-02-11T16:31:52.893Z,60.40
2023-02-11T16:34:24.625Z,60.20
2023-02-11T16:36:54.032Z,60.20
2023-02-11T16:39:22.408Z,60.40
2023-02-11T16:41:51.441Z,60.30
2023-02-11T16:44:25.106Z,60.30
2023-02-11T16:46:53.502Z,60.30
2023-02-11T16:49:31.265Z,60.40
2023-02-11T16:52:05.868Z,60.60
2023-02-11T16:54:35.386Z,60.50
2023-02-11T16:57:11.530Z,60.80
2023-02-11T16:59:46.673Z,60.60
2023-02-11T17:02:24.289Z,60.60
2023-02-11T17:04:59.900Z,60.60
2023-02-11T17:07:32.617Z,60.50
2023-02-11T17:10:00.281Z,60.60
2023-02-11T17:12:29.409Z,60.50
2023-02-11T17:14:58.685Z,60.60
2023-02-11T17:17:30.311Z,60.60
2023-02-11T17:19:57.281Z,60.60
2023-02-11T17:22:29.196Z,60.50
2023-02-11T17:24:58.906Z,60.50
2023-02-11T17:27:30.383Z,60.40
2023-02-11T17:29:57.328Z,60.50
2023-02-11T17:32:26.630Z,60.50
2023-02-11T17:34:58.408Z,60.50
2023-02-11T17:37:27.870Z,60.50
2023-02-11T17:39:58.890Z,60.50
2023-02-11T17:42:31.195Z,60.50
2023-02-11T17:44:58.148Z,60.60
2023-02-11T17:47:27.698Z,60.60
2023-02-11T17:49:56.870Z,61.20
2023-02-11T17:52:28.066Z,60.60
2023-02-11T17:55:00.136Z,60.60
2023-02-11T17:57:26.994Z,60.60
2023-02-11T17:59:54.033Z,60.60
2023-02-11T18:02:20.856Z,60.60
2023-02-11T18:04:47.777Z,60.50
2023-02-11T18:07:17.529Z,60.60
2023-02-11T18:09:49.059Z,60.60
2023-02-11T18:12:18.081Z,60.60
2023-02-11T18:14:44.908Z,60.60
2023-02-11T18:17:14.354Z,60.60
2023-02-11T18:19:46.100Z,60.60
2023-02-11T18:22:16.082Z,60.60
2023-02-11T18:24:45.858Z,60.60
2023-02-11T18:27:15.004Z,60.60
2023-02-11T18:29:42.198Z,60.60
2023-02-11T18:32:09.069Z,60.50
2023-02-11T18:34:41.044Z,60.50
2023-02-11T18:37:16.209Z,60.50
2023-02-11T18:39:43.684Z,60.50
2023-02-11T18:42:10.784Z,60.50
2023-02-11T18:44:42.226Z,60.60
2023-02-11T18:47:11.644Z,60.70
2023-02-11T18:49:40.610Z,60.60
2023-02-11T18:52:14.670Z,60.70
2023-02-11T18:54:43.906Z,60.80
2023-02-11T18:57:13.221Z,60.80
2023-02-11T18:59:40.053Z,60.80
2023-02-11T19:02:07.023Z,60.70
2023-02-11T19:04:37.239Z,60.80
2023-02-11T19:07:04.266Z,60.80
2023-02-11T19:09:33.484Z,60.90
2023-02-11T19:12:02.949Z,60.80
2023-02-11T19:14:33.471Z,60.80
2023-02-11T19:17:12.356Z,60.80
2023-02-11T19:19:44.056Z,60.90
2023-02-11T19:22:13.837Z,60.90
2023-02-11T19:24:43.022Z,60.90
2023-02-11T19:27:10.391Z,60.90
2023-02-11T19:29:42.276Z,60.90
2023-02-11T19:32:13.631Z,61.00
2023-02-11T19:34:43.671Z,61.00
2023-02-11T19:37:12.897Z,61.00
2023-02-11T19:39:43.951Z,61.10
2023-02-11T19:42:12.117Z,61.00
2023-02-11T19:44:41.294Z,61.10
2023-02-11T19:47:10.966Z,61.10
2023-02-11T19:49:47.217Z,61.10
2023-02-11T19:52:14.111Z,61.20
2023-02-11T19:54:43.408Z,61.10
2023-02-11T19:57:12.693Z,61.20
2023-02-11T19:59:41.897Z,61.10
2023-02-11T20:02:15.639Z,61.10
2023-02-11T20:04:42.522Z,61.10
2023-02-11T20:07:11.985Z,61.00
2023-02-11T20:09:40.817Z,61.00
2023-02-11T20:12:08.702Z,61.10
2023-02-11T20:14:35.736Z,61.10
2023-02-11T20:17:02.551Z,61.20
2023-02-11T20:19:30.615Z,61.30
2023-02-11T20:22:00.053Z,61.20
2023-02-11T20:24:29.292Z,61.30
2023-02-11T20:26:58.923Z,61.30
2023-02-11T20:29:25.948Z,61.40
2023-02-11T20:31:56.107Z,61.40
2023-02-11T20:34:25.731Z,61.40
2023-02-11T20:36:55.650Z,61.40
2023-02-11T20:39:26.825Z,61.40
2023-02-11T20:41:54.485Z,61.50
2023-02-11T20:44:22.947Z,61.40
2023-02-11T20:46:54.488Z,61.40
2023-02-11T20:49:28.163Z,61.40
2023-02-11T20:51:58.463Z,61.50
2023-02-11T20:54:28.425Z,61.50
2023-02-11T20:56:58.241Z,61.50
2023-02-11T20:59:26.443Z,61.60
2023-02-11T21:01:58.805Z,61.60
2023-02-11T21:04:30.023Z,61.60
2023-02-11T21:07:01.969Z,61.70
2023-02-11T21:09:33.707Z,61.80
2023-02-11T21:12:01.978Z,61.70
2023-02-11T21:14:31.630Z,61.80
2023-02-11T21:16:58.957Z,61.90
2023-02-11T21:19:28.377Z,62.00
2023-02-11T21:22:01.581Z,61.90
2023-02-11T21:24:31.347Z,62.00
2023-02-11T21:27:03.071Z,62.00
2023-02-11T21:29:34.047Z,62.00
2023-02-11T21:32:05.913Z,62.20
2023-02-11T21:34:37.420Z,62.70
2023-02-11T21:37:04.606Z,62.10
2023-02-11T21:39:31.401Z,62.10
2023-02-11T21:41:58.396Z,62.10
2023-02-11T21:44:25.470Z,62.20
2023-02-11T21:46:52.539Z,62.20
2023-02-11T21:49:20.170Z,62.20
2023-02-11T21:51:50.290Z,62.20
2023-02-11T21:54:21.478Z,62.20
2023-02-11T21:56:52.911Z,62.30
2023-02-11T21:59:22.084Z,62.30
2023-02-11T22:01:51.492Z,62.30
2023-02-11T22:04:22.717Z,62.30
2023-02-11T22:06:52.255Z,62.20
2023-02-11T22:09:19.214Z,62.20
2023-02-11T22:11:46.208Z,62.30
2023-02-11T22:14:18.172Z,62.30
2023-02-11T22:16:46.498Z,62.40
2023-02-11T22:19:18.776Z,62.30
2023-02-11T22:21:46.019Z,62.30
2023-02-11T22:24:15.142Z,62.20
2023-02-11T22:26:44.798Z,62.30
2023-02-11T22:29:18.783Z,62.20
2023-02-11T22:31:45.831Z,62.30
2023-02-11T22:34:12.694Z,62.30
2023-02-11T22:36:41.869Z,62.30
2023-02-11T22:39:18.355Z,62.30
2023-02-11T22:41:54.345Z,62.40
2023-02-11T22:44:21.511Z,62.40
2023-02-11T22:46:52.923Z,62.30
2023-02-11T22:49:29.328Z,62.30
2023-02-11T22:51:56.179Z,62.40
2023-02-11T22:54:28.318Z,62.30
2023-02-11T22:56:57.427Z,62.30
2023-02-11T22:59:24.316Z,62.40
2023-02-11T23:01:56.115Z,62.30
2023-02-11T23:04:25.630Z,62.30
2023-02-11T23:06:54.595Z,62.30
2023-02-11T23:09:21.492Z,62.40
2023-02-11T23:11:54.426Z,62.40
2023-02-11T23:14:21.701Z,62.40
2023-02-11T23:16:51.223Z,62.50
2023-02-11T23:19:33.341Z,62.50
2023-02-11T23:22:03.680Z,62.50
2023-02-11T23:24:30.773Z,62.50
2023-02-11T23:27:00.692Z,62.50
2023-02-11T23:29:27.787Z,62.50
2023-02-11T23:31:57.000Z,62.50
2023-02-11T23:34:32.783Z,63.10
2023-02-11T23:37:02.190Z,62.60
2023-02-11T23:39:31.077Z,62.60
2023-02-11T23:42:02.230Z,62.60
2023-02-11T23:44:33.600Z,62.60
2023-02-11T23:47:03.508Z,62.60
2023-02-11T23:49:30.417Z,62.60
2023-02-11T23:51:59.896Z,62.60
2023-02-11T23:54:29.564Z,62.70
2023-02-11T23:56:58.964Z,62.70
2023-02-11T23:59:25.834Z,62.70
